createdAt,value
2018-08-13T00:13:08.437Z,93979.51
2018-08-13T00:28:42.814Z,93975.88
2018-08-13T00:44:16.646Z,93980.50
2018-08-13T00:59:51.161Z,93976.59
2018-08-13T01:15:26.341Z,93972.50
2018-08-13T01:30:59.499Z,93958.52
2018-08-13T01:46:32.614Z,93941.66
2018-08-13T02:02:07.361Z,93938.77
2018-08-13T02:17:41.299Z,93939.94
2018-08-13T02:33:15.708Z,93936.28
2018-08-13T02:48:50.362Z,93951.25
2018-08-13T03:04:24.775Z,93955.88
2018-08-13T03:19:58.509Z,93952.15
2018-08-13T03:35:33.018Z,93973.70
2018-08-13T03:51:07.309Z,93970.19
2018-08-13T04:06:41.787Z,93964.97
2018-08-13T04:22:16.103Z,93951.14
2018-08-13T04:37:51.617Z,93953.59
2018-08-13T04:53:26.243Z,93949.52
2018-08-13T05:09:00.837Z,93947.19
2018-08-13T05:24:35.037Z,93956.53
2018-08-13T05:40:09.345Z,93953.91
2018-08-13T05:55:43.650Z,93948.41
2018-08-13T06:11:17.795Z,93933.93
2018-08-13T06:26:51.926Z,93928.30
2018-08-13T06:42:26.463Z,93926.00
2018-08-13T06:58:00.839Z,93932.30
2018-08-13T07:13:35.321Z,93916.98
2018-08-13T07:29:10.004Z,93912.36
2018-08-13T07:44:44.264Z,93902.50
2018-08-13T08:00:21.051Z,93905.61
2018-08-13T08:15:55.371Z,93908.67
2018-08-13T08:31:29.397Z,93901.14
2018-08-13T08:47:04.282Z,93877.84
2018-08-13T09:02:38.887Z,93859.73
2018-08-13T09:18:25.356Z,93850.28
2018-08-13T09:34:10.998Z,93858.73
2018-08-13T09:49:44.898Z,93845.25
2018-08-13T10:05:18.323Z,93819.94
2018-08-13T10:20:52.421Z,93814.66
2018-08-13T10:36:26.829Z,93807.63
2018-08-13T10:51:59.934Z,93796.97
2018-08-13T11:07:34.264Z,93782.71
2018-08-13T11:23:08.679Z,93771.92
2018-08-13T11:38:42.660Z,93764.73
2018-08-13T11:54:25.578Z,93748.06
2018-08-13T12:10:00.634Z,93740.47
2018-08-13T12:25:38.005Z,93735.61
2018-08-13T12:41:12.601Z,93722.53
2018-08-13T12:56:45.893Z,93704.33
2018-08-13T13:12:20.724Z,93689.70
2018-08-13T13:27:54.771Z,93690.73
2018-08-13T13:43:29.842Z,93689.70
2018-08-13T13:59:05.279Z,93670.85
2018-08-13T14:14:40.087Z,93652.34
2018-08-13T14:30:14.553Z,93640.95
2018-08-13T14:45:48.953Z,93645.03
2018-08-13T15:01:23.620Z,93628.76
2018-08-13T15:16:57.752Z,93623.98
2018-08-13T15:32:32.381Z,93621.77
2018-08-13T15:48:07.187Z,93621.22
2018-08-13T16:03:41.391Z,93606.52
2018-08-13T16:19:15.791Z,93599.47
2018-08-13T16:34:50.646Z,93602.26
2018-08-13T16:50:29.388Z,93606.96
2018-08-13T17:06:03.480Z,93596.50
2018-08-13T17:21:37.979Z,93605.88
2018-08-13T17:37:12.431Z,93621.74
2018-08-13T17:52:48.097Z,93627.67
2018-08-13T18:08:23.570Z,93630.97
2018-08-13T18:23:57.656Z,93641.67
2018-08-13T18:39:33.437Z,93640.38
2018-08-13T18:55:08.149Z,93639.44
2018-08-13T19:10:43.043Z,93637.92
2018-08-13T19:26:17.110Z,93629.39
2018-08-13T19:41:51.272Z,93628.06
2018-08-13T19:57:25.729Z,93650.08
2018-08-13T20:13:00.333Z,93658.78
